Terminal Aerodrome Forecast
Issued by NWS Cleveland, OH

Home | Current Version | Previous Version | Text Only | Print | Product List | Glossary On
Versions: 1 2 3 4 5 6 7 8 9 10 11 12 13 14 15 16 17 18 19 20 21 22 23 24
000
FTUS41 KCLE 191700
TAFCLE
TAF
KCLE 191720Z 1918/2024 VRB04KT P6SM SCT035
     FM192130 03008KT P6SM FEW035
     FM200000 14004KT P6SM SCT250
     FM200500 18010KT P6SM SCT250
     FM201500 21014G22KT P6SM SCT045=

USA.gov is the U.S. government's official web portal to all federal, state and local government web resources and services.